createdAt,value
2023-10-29T00:03:26.867Z,46.92
2023-10-29T00:07:29.589Z,43.83
2023-10-29T00:11:31.696Z,40.45
2023-10-29T00:15:34.416Z,51.10
2023-10-29T00:19:36.612Z,38.90
2023-10-29T00:23:38.570Z,52.78
2023-10-29T00:27:40.628Z,45.55
2023-10-29T00:31:43.004Z,42.42
2023-10-29T00:35:45.134Z,44.10
2023-10-29T00:39:47.281Z,48.50
2023-10-29T00:43:49.313Z,57.72
2023-10-29T00:47:51.630Z,47.55
2023-10-29T00:51:54.015Z,56.45
2023-10-29T00:55:56.274Z,56.95
2023-10-29T00:59:58.561Z,55.50
2023-10-29T01:04:00.773Z,56.70
2023-10-29T01:08:06.449Z,71.95
2023-10-29T01:12:16.923Z,47.65
2023-10-29T01:16:18.972Z,48.47
2023-10-29T01:20:21.029Z,48.08
2023-10-29T01:24:23.758Z,65.32
2023-10-29T01:28:25.955Z,48.92
2023-10-29T01:32:28.118Z,56.88
2023-10-29T01:36:30.152Z,69.30
2023-10-29T01:40:32.197Z,54.97
2023-10-29T01:44:34.293Z,48.65
2023-10-29T01:48:36.514Z,64.18
2023-10-29T01:52:41.852Z,51.00
2023-10-29T01:56:43.661Z,64.47
2023-10-29T02:00:45.797Z,59.97
2023-10-29T02:04:48.009Z,55.22
2023-10-29T02:08:50.179Z,61.95
2023-10-29T02:12:53.008Z,49.08
2023-10-29T02:16:54.943Z,59.42
2023-10-29T02:20:57.340Z,56.25
2023-10-29T02:24:59.629Z,48.17
2023-10-29T02:29:01.736Z,53.92
2023-10-29T02:33:04.038Z,53.97
2023-10-29T02:37:06.279Z,58.30
2023-10-29T02:41:08.558Z,55.88
2023-10-29T02:45:11.754Z,54.05
2023-10-29T02:49:13.869Z,62.38
2023-10-29T02:53:16.170Z,56.30
2023-10-29T02:57:18.451Z,57.10
2023-10-29T03:01:20.822Z,53.85
2023-10-29T03:05:22.968Z,58.45
2023-10-29T03:09:25.224Z,59.15
2023-10-29T03:13:27.267Z,63.33
2023-10-29T03:17:29.029Z,57.78
2023-10-29T03:21:31.116Z,78.78
2023-10-29T03:25:33.426Z,64.55
2023-10-29T03:29:35.461Z,63.67
2023-10-29T03:33:37.586Z,69.93
2023-10-29T03:37:40.253Z,56.50
2023-10-29T03:41:43.084Z,64.68
2023-10-29T03:45:45.152Z,75.57
2023-10-29T03:49:47.183Z,80.03
2023-10-29T03:53:49.304Z,73.55
2023-10-29T03:57:51.523Z,68.90
2023-10-29T04:01:53.928Z,71.63
2023-10-29T04:05:56.941Z,72.35
2023-10-29T04:10:00.180Z,72.47
2023-10-29T04:14:03.911Z,79.45
2023-10-29T04:18:06.340Z,87.22
2023-10-29T04:22:09.212Z,90.05
2023-10-29T04:26:11.270Z,73.30
2023-10-29T04:30:13.544Z,79.65
2023-10-29T04:34:15.564Z,91.00
2023-10-29T04:38:17.586Z,97.53
2023-10-29T04:42:19.917Z,68.68
2023-10-29T04:46:21.924Z,91.40
2023-10-29T04:50:24.059Z,97.85
2023-10-29T04:54:26.286Z,92.68
2023-10-29T04:58:28.393Z,79.35
2023-10-29T05:02:30.573Z,86.82
2023-10-29T05:06:33.635Z,88.20
2023-10-29T05:10:35.749Z,70.03
2023-10-29T05:14:37.940Z,86.85
2023-10-29T05:18:40.082Z,78.03
2023-10-29T05:22:42.305Z,76.53
2023-10-29T05:26:44.364Z,72.43
2023-10-29T05:30:46.587Z,121.60
2023-10-29T05:34:48.741Z,87.20
2023-10-29T05:38:50.908Z,135.40
2023-10-29T05:42:53.445Z,99.95
2023-10-29T05:46:55.534Z,116.68
2023-10-29T05:50:58.156Z,87.55
2023-10-29T05:55:04.764Z,92.32
2023-10-29T05:59:06.985Z,130.68
2023-10-29T06:03:09.164Z,142.18
2023-10-29T06:07:11.369Z,166.23
2023-10-29T06:11:13.106Z,136.55
2023-10-29T06:15:16.097Z,83.85
2023-10-29T06:19:18.318Z,96.85
2023-10-29T06:23:21.185Z,122.13
2023-10-29T06:27:23.365Z,99.05
2023-10-29T06:31:30.462Z,110.70
2023-10-29T06:35:32.523Z,110.75
2023-10-29T06:39:34.653Z,79.57
2023-10-29T06:43:36.311Z,75.18
2023-10-29T06:47:38.494Z,116.07
2023-10-29T06:51:40.288Z,86.55
2023-10-29T06:55:43.383Z,69.25
2023-10-29T06:59:45.610Z,78.38
2023-10-29T07:03:47.836Z,84.22
2023-10-29T07:07:50.044Z,86.93
2023-10-29T07:11:52.821Z,72.72
2023-10-29T07:15:55.791Z,59.33
2023-10-29T07:19:58.225Z,70.00
2023-10-29T07:24:00.642Z,50.47
2023-10-29T07:28:03.056Z,56.17
2023-10-29T07:32:05.570Z,58.65
2023-10-29T07:36:08.244Z,53.53
2023-10-29T07:40:10.546Z,55.20
2023-10-29T07:44:12.586Z,53.65
2023-10-29T07:48:18.530Z,43.90
2023-10-29T07:52:20.664Z,41.47
2023-10-29T07:56:22.785Z,41.03
2023-10-29T08:00:24.792Z,41.30
2023-10-29T08:04:29.304Z,32.67
2023-10-29T08:08:31.172Z,33.92
2023-10-29T08:12:33.365Z,31.30
2023-10-29T08:16:35.492Z,33.13
2023-10-29T08:20:37.630Z,27.33
2023-10-29T08:24:41.122Z,28.73
2023-10-29T08:28:43.260Z,33.92
2023-10-29T08:32:45.434Z,31.50
2023-10-29T08:36:47.577Z,25.23
2023-10-29T08:40:49.748Z,25.17
2023-10-29T08:44:56.990Z,22.92
2023-10-29T08:48:59.422Z,24.17
2023-10-29T08:53:01.557Z,27.15
2023-10-29T08:57:03.760Z,22.85
2023-10-29T09:01:13.808Z,23.13
2023-10-29T09:05:16.422Z,23.52
2023-10-29T09:09:19.105Z,19.10
2023-10-29T09:13:23.901Z,23.08
2023-10-29T09:17:26.145Z,22.27
2023-10-29T09:21:28.413Z,17.50
2023-10-29T09:25:30.500Z,18.50
2023-10-29T09:29:34.569Z,14.93
2023-10-29T09:33:36.663Z,15.48
2023-10-29T09:37:38.656Z,22.33
2023-10-29T09:41:44.471Z,18.20
2023-10-29T09:45:48.723Z,15.98
2023-10-29T09:49:52.466Z,14.75
2023-10-29T09:53:57.362Z,18.05
2023-10-29T09:58:00.790Z,15.73
2023-10-29T10:02:03.345Z,13.95
2023-10-29T10:06:07.254Z,19.83
2023-10-29T10:10:09.661Z,16.85
2023-10-29T10:14:27.317Z,14.48
2023-10-29T10:18:29.489Z,12.63
2023-10-29T10:22:38.859Z,12.82
2023-10-29T10:26:42.008Z,12.57
2023-10-29T10:30:44.219Z,19.02
2023-10-29T10:34:52.244Z,22.90
2023-10-29T10:38:54.489Z,19.55
2023-10-29T10:42:57.385Z,13.55
2023-10-29T10:47:01.346Z,12.45
2023-10-29T10:51:04.088Z,13.00
2023-10-29T10:55:10.699Z,10.82
2023-10-29T10:59:21.472Z,10.45
2023-10-29T11:03:32.238Z,8.43
2023-10-29T11:07:36.222Z,12.95
2023-10-29T11:11:44.505Z,9.52
2023-10-29T11:15:51.056Z,11.05
2023-10-29T11:19:53.400Z,7.53
2023-10-29T11:24:19.867Z,9.68
2023-10-29T11:28:25.452Z,8.13
2023-10-29T11:32:27.718Z,9.20
2023-10-29T11:36:36.579Z,9.25
2023-10-29T11:40:38.871Z,9.43
2023-10-29T11:44:41.131Z,10.98
2023-10-29T11:49:04.139Z,8.32
2023-10-29T11:53:08.271Z,8.68
2023-10-29T11:57:10.579Z,11.30
2023-10-29T12:01:18.955Z,9.55
2023-10-29T12:05:20.937Z,6.35
2023-10-29T12:09:24.971Z,7.13
2023-10-29T12:13:40.054Z,8.93
2023-10-29T12:17:46.452Z,6.93
2023-10-29T12:21:52.437Z,6.78
2023-10-29T12:25:54.778Z,7.45
2023-10-29T12:29:57.518Z,9.60
2023-10-29T12:34:01.065Z,9.10
2023-10-29T12:38:02.789Z,6.47
2023-10-29T12:42:05.048Z,7.85
2023-10-29T12:46:15.498Z,7.43
2023-10-29T12:50:17.537Z,6.05
2023-10-29T12:54:24.905Z,7.82
2023-10-29T12:58:29.404Z,5.70
2023-10-29T13:02:31.667Z,7.43
2023-10-29T13:06:33.977Z,6.95
2023-10-29T13:10:37.031Z,8.63
2023-10-29T13:14:40.572Z,5.68
2023-10-29T13:18:42.737Z,6.55
2023-10-29T13:22:45.993Z,7.07
2023-10-29T13:26:49.469Z,4.88
2023-10-29T13:30:56.205Z,4.85
2023-10-29T13:34:58.452Z,4.40
2023-10-29T13:39:00.659Z,6.28
2023-10-29T13:43:02.698Z,6.57
2023-10-29T13:47:05.124Z,4.68
2023-10-29T13:51:07.633Z,7.13
2023-10-29T13:55:10.036Z,7.80
2023-10-29T13:59:13.061Z,5.63
2023-10-29T14:03:15.080Z,4.65
2023-10-29T14:07:17.387Z,3.22
2023-10-29T14:11:20.842Z,5.18
2023-10-29T14:15:22.855Z,7.13
2023-10-29T14:19:25.473Z,4.43
2023-10-29T14:23:28.014Z,5.30
2023-10-29T14:27:31.275Z,7.57
2023-10-29T14:31:35.021Z,5.40
2023-10-29T14:35:37.281Z,8.98
2023-10-29T14:39:39.365Z,5.68
2023-10-29T14:43:42.319Z,4.45
2023-10-29T14:47:47.218Z,5.32
2023-10-29T14:51:49.291Z,6.72
2023-10-29T14:55:51.436Z,4.55
2023-10-29T14:59:53.576Z,4.13
2023-10-29T15:03:56.212Z,5.97
2023-10-29T15:07:58.338Z,7.47
2023-10-29T15:12:04.548Z,3.83
2023-10-29T15:16:07.301Z,4.30
2023-10-29T15:20:10.541Z,6.15
2023-10-29T15:24:12.604Z,9.90
2023-10-29T15:28:14.792Z,13.75
2023-10-29T15:32:17.060Z,7.00
2023-10-29T15:36:19.188Z,6.78
2023-10-29T15:40:21.437Z,10.85
2023-10-29T15:44:23.586Z,17.05
2023-10-29T15:48:25.825Z,7.32
2023-10-29T15:52:27.570Z,5.45
2023-10-29T15:56:32.120Z,9.25
2023-10-29T16:00:37.498Z,6.72
2023-10-29T16:04:39.812Z,12.77
2023-10-29T16:08:42.115Z,9.30
2023-10-29T16:12:43.926Z,8.30
2023-10-29T16:16:45.956Z,12.63
2023-10-29T16:20:48.930Z,19.83
2023-10-29T16:24:50.716Z,9.40
2023-10-29T16:28:53.096Z,9.43
2023-10-29T16:32:56.568Z,6.72
2023-10-29T16:36:58.704Z,8.25
2023-10-29T16:41:05.188Z,6.40
2023-10-29T16:45:08.121Z,9.80
2023-10-29T16:49:10.536Z,9.75
2023-10-29T16:53:12.735Z,7.00
2023-10-29T16:57:14.965Z,8.77
2023-10-29T17:01:17.144Z,9.43
2023-10-29T17:05:19.523Z,6.93
2023-10-29T17:09:22.933Z,17.17
2023-10-29T17:13:25.922Z,21.67
2023-10-29T17:17:29.608Z,18.33
2023-10-29T17:21:32.045Z,25.17
2023-10-29T17:25:36.343Z,30.90
2023-10-29T17:29:38.388Z,25.92
2023-10-29T17:33:41.086Z,19.15
2023-10-29T17:37:44.420Z,17.25
2023-10-29T17:41:46.996Z,13.32
2023-10-29T17:45:49.076Z,11.25
2023-10-29T17:49:51.117Z,15.25
2023-10-29T17:53:54.682Z,16.08
2023-10-29T17:57:57.949Z,20.55
2023-10-29T18:01:59.958Z,19.77
2023-10-29T18:06:15.539Z,32.13
2023-10-29T18:10:18.699Z,17.25
2023-10-29T18:14:21.505Z,18.00
2023-10-29T18:18:23.553Z,14.40
2023-10-29T18:22:25.651Z,18.38
2023-10-29T18:26:27.743Z,10.95
2023-10-29T18:30:29.900Z,14.93
2023-10-29T18:34:32.321Z,15.70
2023-10-29T18:38:34.522Z,16.65
2023-10-29T18:42:36.593Z,13.13
2023-10-29T18:46:38.732Z,13.35
2023-10-29T18:50:40.758Z,14.02
2023-10-29T18:54:42.808Z,16.52
2023-10-29T18:58:45.563Z,19.85
2023-10-29T19:02:47.689Z,15.63
2023-10-29T19:06:49.715Z,16.20
2023-10-29T19:10:51.867Z,24.25
2023-10-29T19:14:54.002Z,17.67
2023-10-29T19:18:58.871Z,16.25
2023-10-29T19:23:02.369Z,18.90
2023-10-29T19:27:04.432Z,13.38
2023-10-29T19:39:17.138Z,19.35
2023-10-29T19:43:19.424Z,15.10
2023-10-29T19:47:21.493Z,19.92
2023-10-29T19:51:24.347Z,20.50
2023-10-29T19:55:26.500Z,17.10
2023-10-29T19:59:28.615Z,19.92
2023-10-29T20:03:31.049Z,13.98
2023-10-29T20:07:33.620Z,21.40
2023-10-29T20:11:35.677Z,17.80
2023-10-29T20:15:37.821Z,21.85
2023-10-29T20:19:43.036Z,24.08
2023-10-29T20:23:45.094Z,13.93
2023-10-29T20:27:47.083Z,20.42
2023-10-29T20:31:49.173Z,25.25
2023-10-29T20:35:51.279Z,29.98
2023-10-29T20:39:53.370Z,22.10
2023-10-29T20:43:55.342Z,21.75
2023-10-29T20:47:57.673Z,20.00
2023-10-29T20:51:59.458Z,24.30
2023-10-29T20:56:05.849Z,24.17
2023-10-29T21:00:09.360Z,16.58
2023-10-29T21:04:11.774Z,21.13
2023-10-29T21:08:13.709Z,19.63
2023-10-29T21:12:15.899Z,22.33
2023-10-29T21:16:21.534Z,17.52
2023-10-29T21:20:27.587Z,17.10
2023-10-29T21:24:29.818Z,19.88
2023-10-29T21:28:32.438Z,20.90
2023-10-29T21:32:34.299Z,22.15
2023-10-29T21:36:37.671Z,21.13
2023-10-29T21:40:39.303Z,21.05
2023-10-29T21:44:45.784Z,27.23
2023-10-29T21:48:47.816Z,31.25
2023-10-29T21:52:49.932Z,24.23
2023-10-29T21:56:51.914Z,28.05
2023-10-29T22:00:54.111Z,25.77
2023-10-29T22:04:55.910Z,23.27
2023-10-29T22:08:58.952Z,23.13
2023-10-29T22:13:01.588Z,27.50
2023-10-29T22:17:03.802Z,20.35
2023-10-29T22:21:11.616Z,25.20
2023-10-29T22:25:13.917Z,26.83
2023-10-29T22:29:16.064Z,25.88
2023-10-29T22:33:18.229Z,24.85
2023-10-29T22:37:20.370Z,26.90
2023-10-29T22:41:22.417Z,25.55
2023-10-29T22:45:24.762Z,24.85
2023-10-29T22:49:26.939Z,29.80
2023-10-29T22:53:28.958Z,25.27
2023-10-29T22:57:31.119Z,33.70
2023-10-29T23:01:33.220Z,23.83
2023-10-29T23:05:35.462Z,27.13
2023-10-29T23:09:37.178Z,24.23
2023-10-29T23:13:39.289Z,25.23
2023-10-29T23:17:41.772Z,27.52
2023-10-29T23:21:43.633Z,25.02
2023-10-29T23:25:46.162Z,22.88
2023-10-29T23:29:48.701Z,26.70
2023-10-29T23:33:50.981Z,25.50
2023-10-29T23:37:54.483Z,22.58
2023-10-29T23:41:56.948Z,23.90
2023-10-29T23:45:59.030Z,22.67
2023-10-29T23:50:01.059Z,25.92
2023-10-29T23:54:03.497Z,24.98
2023-10-29T23:58:05.570Z,27.25
